KLM994 EGKK-EDDH
Flight info
| Callsign | KLM994 |
|---|---|
| Flight time | 1h 6m |
| Altitude | 31000 |
| Route | FRANE M604 PAAVO Q295 SOMVA DCT MAVAS DCT PARYD DCT GASTU DCT OSTOR T904 RIBSO RIBSO7A |
| Aircraft | A20N/M-SDE2E3FGHIRWXY/LB1 |
Departure
| Time | 2026-05-06 09:48 |
|---|---|
| Airport | London Gatwick Airport (EGKK) |
Arrival
| Time | 2026-05-06 10:55 |
|---|---|
| Airport | Hamburg Helmut Schmidt Airport (EDDH) |
| Time | Latitude | Longitude | Altitude | Speed | Heading |
|---|---|---|---|---|---|
| 2026-05-06 09:21 | 51.16276 | -0.18094 | 205 ft | 0 kts | 75° |
| 2026-05-06 09:31 | 51.16273 | -0.18114 | 209 ft | 2 kts | 75° |
| 2026-05-06 09:31 | 51.16268 | -0.18139 | 211 ft | 2 kts | 84° |
| 2026-05-06 09:31 | 51.16269 | -0.18164 | 214 ft | 2 kts | 108° |
| 2026-05-06 09:31 | 51.16274 | -0.18189 | 211 ft | 2 kts | 99° |
| 2026-05-06 09:32 | 51.16276 | -0.18215 | 213 ft | 2 kts | 122° |
| 2026-05-06 09:32 | 51.16287 | -0.18232 | 216 ft | 0 kts | 166° |
| 2026-05-06 09:34 | 51.16273 | -0.18227 | 209 ft | 9 kts | 166° |
| 2026-05-06 09:34 | 51.16140 | -0.18174 | 207 ft | 19 kts | 166° |
| 2026-05-06 09:35 | 51.16014 | -0.18131 | 208 ft | 18 kts | 170° |
| 2026-05-06 09:35 | 51.15895 | -0.18096 | 205 ft | 17 kts | 169° |
| 2026-05-06 09:35 | 51.15793 | -0.18061 | 209 ft | 12 kts | 168° |
| 2026-05-06 09:35 | 51.15718 | -0.18044 | 211 ft | 10 kts | 194° |
| 2026-05-06 09:36 | 51.15678 | -0.18125 | 211 ft | 9 kts | 246° |
| 2026-05-06 09:36 | 51.15664 | -0.18217 | 210 ft | 8 kts | 259° |
| 2026-05-06 09:36 | 51.15652 | -0.18299 | 207 ft | 7 kts | 248° |
| 2026-05-06 09:36 | 51.15618 | -0.18346 | 208 ft | 7 kts | 197° |
| 2026-05-06 09:37 | 51.15554 | -0.18327 | 207 ft | 16 kts | 164° |
| 2026-05-06 09:37 | 51.15421 | -0.18286 | 207 ft | 19 kts | 173° |
| 2026-05-06 09:37 | 51.15312 | -0.18250 | 213 ft | 14 kts | 166° |
| 2026-05-06 09:37 | 51.15225 | -0.18231 | 206 ft | 12 kts | 194° |
| 2026-05-06 09:38 | 51.15182 | -0.18330 | 212 ft | 11 kts | 255° |
| 2026-05-06 09:38 | 51.15168 | -0.18445 | 212 ft | 10 kts | 259° |
| 2026-05-06 09:38 | 51.15154 | -0.18548 | 207 ft | 9 kts | 257° |
| 2026-05-06 09:38 | 51.15140 | -0.18643 | 210 ft | 9 kts | 257° |
| 2026-05-06 09:39 | 51.15127 | -0.18733 | 216 ft | 8 kts | 257° |
| 2026-05-06 09:39 | 51.15115 | -0.18817 | 210 ft | 7 kts | 257° |
| 2026-05-06 09:39 | 51.15105 | -0.18892 | 206 ft | 6 kts | 258° |
| 2026-05-06 09:39 | 51.15096 | -0.18958 | 209 ft | 8 kts | 258° |
| 2026-05-06 09:40 | 51.15073 | -0.19127 | 207 ft | 18 kts | 258° |
| 2026-05-06 09:40 | 51.15049 | -0.19320 | 207 ft | 17 kts | 258° |
| 2026-05-06 09:40 | 51.15003 | -0.19652 | 207 ft | 15 kts | 257° |
| 2026-05-06 09:41 | 51.14971 | -0.19878 | 211 ft | 25 kts | 257° |
| 2026-05-06 09:41 | 51.14934 | -0.20161 | 206 ft | 27 kts | 259° |
| 2026-05-06 09:41 | 51.14890 | -0.20464 | 205 ft | 29 kts | 255° |
| 2026-05-06 09:41 | 51.14844 | -0.20787 | 202 ft | 31 kts | 259° |
| 2026-05-06 09:42 | 51.14803 | -0.21103 | 206 ft | 28 kts | 253° |
| 2026-05-06 09:42 | 51.14760 | -0.21334 | 202 ft | 17 kts | 253° |
| 2026-05-06 09:42 | 51.14679 | -0.21377 | 209 ft | 14 kts | 147° |
| 2026-05-06 09:42 | 51.14646 | -0.21343 | 207 ft | 0 kts | 152° |
| 2026-05-06 09:44 | 51.14640 | -0.21338 | 205 ft | 1 kts | 152° |
| 2026-05-06 09:44 | 51.14637 | -0.21335 | 205 ft | 0 kts | 154° |
| 2026-05-06 09:47 | 51.14618 | -0.21323 | 208 ft | 9 kts | 159° |
| 2026-05-06 09:47 | 51.14553 | -0.21265 | 210 ft | 13 kts | 134° |
| 2026-05-06 09:48 | 51.14553 | -0.20909 | 206 ft | 69 kts | 77° |
| 2026-05-06 09:48 | 51.14730 | -0.19693 | 215 ft | 152 kts | 76° |
| 2026-05-06 09:48 | 51.15070 | -0.17824 | 657 ft | 182 kts | 73° |
| 2026-05-06 09:48 | 51.15373 | -0.15877 | 1695 ft | 182 kts | 73° |
| 2026-05-06 09:49 | 51.15642 | -0.13845 | 2213 ft | 197 kts | 75° |
| 2026-05-06 09:49 | 51.15932 | -0.11558 | 2654 ft | 223 kts | 75° |
| 2026-05-06 09:49 | 51.16258 | -0.09005 | 3256 ft | 244 kts | 75° |
| 2026-05-06 09:49 | 51.16606 | -0.06307 | 4194 ft | 252 kts | 74° |
| 2026-05-06 09:50 | 51.16907 | -0.03493 | 4956 ft | 264 kts | 84° |
| 2026-05-06 09:50 | 51.16849 | -0.00520 | 5910 ft | 272 kts | 88° |
| 2026-05-06 09:50 | 51.16784 | 0.02523 | 6853 ft | 279 kts | 88° |
| 2026-05-06 09:50 | 51.16724 | 0.05647 | 7804 ft | 283 kts | 88° |
| 2026-05-06 09:51 | 51.16666 | 0.08766 | 8776 ft | 287 kts | 89° |
| 2026-05-06 09:51 | 51.16608 | 0.11968 | 9783 ft | 291 kts | 89° |
| 2026-05-06 09:51 | 51.16552 | 0.15208 | 10655 ft | 297 kts | 89° |
| 2026-05-06 09:51 | 51.16864 | 0.18544 | 11008 ft | 316 kts | 67° |
| 2026-05-06 09:52 | 51.18064 | 0.21566 | 11384 ft | 332 kts | 43° |
| 2026-05-06 09:52 | 51.19979 | 0.23639 | 12072 ft | 337 kts | 23° |
| 2026-05-06 09:52 | 51.22138 | 0.25171 | 12788 ft | 343 kts | 21° |
| 2026-05-06 09:52 | 51.24349 | 0.26675 | 13032 ft | 346 kts | 21° |
| 2026-05-06 09:53 | 51.26562 | 0.28183 | 13095 ft | 346 kts | 21° |
| 2026-05-06 09:53 | 51.28777 | 0.29696 | 13088 ft | 346 kts | 21° |
| 2026-05-06 09:53 | 51.30997 | 0.31198 | 13082 ft | 346 kts | 21° |
| 2026-05-06 09:53 | 51.33228 | 0.32722 | 13509 ft | 350 kts | 21° |
| 2026-05-06 09:54 | 51.35481 | 0.34253 | 14313 ft | 354 kts | 21° |
| 2026-05-06 09:54 | 51.37752 | 0.35817 | 15058 ft | 357 kts | 21° |
| 2026-05-06 09:54 | 51.40049 | 0.37408 | 15766 ft | 362 kts | 21° |
| 2026-05-06 09:54 | 51.42376 | 0.39019 | 16469 ft | 367 kts | 21° |
| 2026-05-06 09:55 | 51.44733 | 0.40671 | 16855 ft | 371 kts | 21° |
| 2026-05-06 09:55 | 51.47103 | 0.42312 | 16964 ft | 372 kts | 21° |
| 2026-05-06 09:55 | 51.49481 | 0.43977 | 16977 ft | 372 kts | 21° |
| 2026-05-06 09:55 | 51.51851 | 0.45626 | 16976 ft | 372 kts | 21° |
| 2026-05-06 09:56 | 51.54223 | 0.47285 | 16976 ft | 372 kts | 21° |
| 2026-05-06 09:56 | 51.56525 | 0.49069 | 16974 ft | 374 kts | 31° |
| 2026-05-06 09:56 | 51.58641 | 0.51552 | 17398 ft | 379 kts | 35° |
| 2026-05-06 09:56 | 51.60760 | 0.54119 | 18133 ft | 383 kts | 35° |
| 2026-05-06 09:57 | 51.62895 | 0.56708 | 18754 ft | 387 kts | 35° |
| 2026-05-06 09:57 | 51.65055 | 0.59330 | 19330 ft | 391 kts | 36° |
| 2026-05-06 09:57 | 51.67235 | 0.61981 | 19922 ft | 395 kts | 36° |
| 2026-05-06 09:57 | 51.69449 | 0.64678 | 20481 ft | 400 kts | 36° |
| 2026-05-06 09:58 | 51.71676 | 0.67395 | 21058 ft | 404 kts | 36° |
| 2026-05-06 09:58 | 51.73927 | 0.70148 | 21601 ft | 408 kts | 36° |
| 2026-05-06 09:58 | 51.76200 | 0.72934 | 22177 ft | 412 kts | 36° |
| 2026-05-06 09:58 | 51.78490 | 0.75746 | 22722 ft | 416 kts | 36° |
| 2026-05-06 09:59 | 51.80810 | 0.78602 | 23285 ft | 419 kts | 36° |
| 2026-05-06 09:59 | 51.83133 | 0.81492 | 23780 ft | 423 kts | 39° |
| 2026-05-06 09:59 | 51.85242 | 0.84829 | 24254 ft | 427 kts | 49° |
| 2026-05-06 09:59 | 51.87001 | 0.88727 | 24709 ft | 431 kts | 59° |
| 2026-05-06 10:00 | 51.88329 | 0.93012 | 25168 ft | 433 kts | 68° |
| 2026-05-06 10:00 | 51.89494 | 0.97588 | 25623 ft | 436 kts | 68° |
| 2026-05-06 10:00 | 51.90643 | 1.02092 | 26080 ft | 439 kts | 68° |
| 2026-05-06 10:00 | 51.91811 | 1.06667 | 26543 ft | 441 kts | 68° |
| 2026-05-06 10:01 | 51.92991 | 1.11274 | 26995 ft | 444 kts | 68° |
| 2026-05-06 10:01 | 51.94177 | 1.15909 | 27438 ft | 446 kts | 68° |
| 2026-05-06 10:01 | 51.95367 | 1.20573 | 27883 ft | 449 kts | 68° |
| 2026-05-06 10:01 | 51.96563 | 1.25274 | 28324 ft | 452 kts | 68° |
| 2026-05-06 10:02 | 51.97761 | 1.29999 | 28740 ft | 454 kts | 68° |
| 2026-05-06 10:02 | 51.98963 | 1.34759 | 29152 ft | 457 kts | 68° |
| 2026-05-06 10:02 | 52.00168 | 1.39546 | 29543 ft | 459 kts | 68° |
| 2026-05-06 10:02 | 52.01377 | 1.44359 | 29916 ft | 462 kts | 68° |
| 2026-05-06 10:03 | 52.02589 | 1.49203 | 30252 ft | 464 kts | 69° |
| 2026-05-06 10:03 | 52.03803 | 1.54060 | 30611 ft | 465 kts | 69° |
| 2026-05-06 10:03 | 52.05021 | 1.58933 | 30891 ft | 466 kts | 69° |
| 2026-05-06 10:03 | 52.06233 | 1.63781 | 30956 ft | 457 kts | 69° |
| 2026-05-06 10:04 | 52.08583 | 1.73230 | 30963 ft | 447 kts | 69° |
| 2026-05-06 10:04 | 52.10898 | 1.82589 | 30963 ft | 446 kts | 69° |
| 2026-05-06 10:05 | 52.13191 | 1.91888 | 30965 ft | 446 kts | 69° |
| 2026-05-06 10:05 | 52.15490 | 2.01260 | 30963 ft | 445 kts | 69° |
| 2026-05-06 10:06 | 52.17773 | 2.10605 | 30964 ft | 444 kts | 69° |
| 2026-05-06 10:06 | 52.20049 | 2.19948 | 30956 ft | 443 kts | 69° |
| 2026-05-06 10:07 | 52.22310 | 2.29294 | 30954 ft | 443 kts | 69° |
| 2026-05-06 10:07 | 52.24568 | 2.38649 | 30950 ft | 443 kts | 70° |
| 2026-05-06 10:08 | 52.26819 | 2.47998 | 30948 ft | 443 kts | 70° |
| 2026-05-06 10:08 | 52.29055 | 2.57366 | 30937 ft | 443 kts | 70° |
| 2026-05-06 10:09 | 52.31155 | 2.66809 | 30939 ft | 442 kts | 75° |
| 2026-05-06 10:09 | 52.32849 | 2.76461 | 30942 ft | 442 kts | 75° |
| 2026-05-06 10:10 | 52.34540 | 2.86059 | 30935 ft | 442 kts | 75° |
| 2026-05-06 10:10 | 52.36237 | 2.95736 | 30935 ft | 442 kts | 75° |
| 2026-05-06 10:11 | 52.37925 | 3.05396 | 30923 ft | 441 kts | 76° |
| 2026-05-06 10:11 | 52.39596 | 3.15055 | 30928 ft | 441 kts | 76° |
| 2026-05-06 10:12 | 52.41260 | 3.24713 | 30915 ft | 441 kts | 76° |
| 2026-05-06 10:12 | 52.42922 | 3.34383 | 30918 ft | 440 kts | 76° |
| 2026-05-06 10:13 | 52.44573 | 3.44044 | 30911 ft | 440 kts | 76° |
| 2026-05-06 10:13 | 52.46215 | 3.53701 | 30921 ft | 439 kts | 77° |
| 2026-05-06 10:14 | 52.47842 | 3.63343 | 30941 ft | 438 kts | 77° |
| 2026-05-06 10:14 | 52.49454 | 3.72969 | 30938 ft | 437 kts | 77° |
| 2026-05-06 10:15 | 52.51064 | 3.82595 | 30935 ft | 437 kts | 77° |
| 2026-05-06 10:15 | 52.52394 | 3.90588 | 30930 ft | 436 kts | 77° |
| 2026-05-06 10:16 | 52.53978 | 4.00219 | 30908 ft | 436 kts | 77° |
| 2026-05-06 10:16 | 52.55563 | 4.09842 | 30900 ft | 437 kts | 76° |
| 2026-05-06 10:17 | 52.57579 | 4.19245 | 30903 ft | 439 kts | 65° |
| 2026-05-06 10:17 | 52.60282 | 4.28260 | 30892 ft | 440 kts | 65° |
| 2026-05-06 10:18 | 52.62999 | 4.37298 | 30891 ft | 440 kts | 65° |
| 2026-05-06 10:18 | 52.65696 | 4.46346 | 30885 ft | 440 kts | 65° |
| 2026-05-06 10:19 | 52.68381 | 4.55422 | 30897 ft | 441 kts | 65° |
| 2026-05-06 10:19 | 52.71063 | 4.64503 | 30886 ft | 441 kts | 65° |
| 2026-05-06 10:20 | 52.73750 | 4.73631 | 30909 ft | 443 kts | 65° |
| 2026-05-06 10:20 | 52.76424 | 4.82740 | 30909 ft | 443 kts | 65° |
| 2026-05-06 10:21 | 52.79092 | 4.91872 | 30899 ft | 441 kts | 66° |
| 2026-05-06 10:21 | 52.81752 | 5.01006 | 30893 ft | 441 kts | 66° |
| 2026-05-06 10:22 | 52.84402 | 5.10135 | 30886 ft | 441 kts | 66° |
| 2026-05-06 10:22 | 52.87040 | 5.19284 | 30893 ft | 440 kts | 67° |
| 2026-05-06 10:23 | 52.89669 | 5.28434 | 30889 ft | 440 kts | 67° |
| 2026-05-06 10:23 | 52.92292 | 5.37593 | 30882 ft | 440 kts | 67° |
| 2026-05-06 10:24 | 52.94905 | 5.46774 | 30886 ft | 440 kts | 68° |
| 2026-05-06 10:24 | 52.97309 | 5.56104 | 30876 ft | 439 kts | 71° |
| 2026-05-06 10:25 | 52.99526 | 5.65571 | 30882 ft | 439 kts | 71° |
| 2026-05-06 10:25 | 53.01747 | 5.75050 | 30889 ft | 439 kts | 71° |
| 2026-05-06 10:26 | 53.03999 | 5.84428 | 30893 ft | 438 kts | 71° |
| 2026-05-06 10:26 | 53.06261 | 5.93825 | 30894 ft | 438 kts | 71° |
| 2026-05-06 10:27 | 53.08500 | 6.03198 | 30892 ft | 438 kts | 71° |
| 2026-05-06 10:27 | 53.10737 | 6.12624 | 30881 ft | 438 kts | 71° |
| 2026-05-06 10:28 | 53.12971 | 6.22084 | 30878 ft | 439 kts | 71° |
| 2026-05-06 10:28 | 53.15198 | 6.31555 | 30873 ft | 440 kts | 71° |
| 2026-05-06 10:29 | 53.17422 | 6.41049 | 30878 ft | 440 kts | 71° |
| 2026-05-06 10:29 | 53.19640 | 6.50573 | 30885 ft | 440 kts | 71° |
| 2026-05-06 10:30 | 53.21849 | 6.60106 | 30874 ft | 441 kts | 71° |
| 2026-05-06 10:30 | 53.24056 | 6.69653 | 30883 ft | 440 kts | 71° |
| 2026-05-06 10:31 | 53.26249 | 6.79182 | 30906 ft | 439 kts | 71° |
| 2026-05-06 10:31 | 53.28433 | 6.88689 | 30912 ft | 438 kts | 71° |
| 2026-05-06 10:32 | 53.30584 | 6.98134 | 30900 ft | 437 kts | 72° |
| 2026-05-06 10:32 | 53.32736 | 7.07634 | 30889 ft | 436 kts | 72° |
| 2026-05-06 10:33 | 53.34881 | 7.17126 | 30774 ft | 437 kts | 72° |
| 2026-05-06 10:33 | 53.35956 | 7.21889 | 30510 ft | 437 kts | 72° |
| 2026-05-06 10:33 | 53.37024 | 7.26632 | 29864 ft | 435 kts | 71° |
| 2026-05-06 10:34 | 53.38086 | 7.31377 | 29093 ft | 434 kts | 71° |
| 2026-05-06 10:34 | 53.39141 | 7.36095 | 28459 ft | 430 kts | 71° |
| 2026-05-06 10:34 | 53.40186 | 7.40776 | 27820 ft | 426 kts | 71° |
| 2026-05-06 10:34 | 53.41219 | 7.45406 | 27192 ft | 423 kts | 71° |
| 2026-05-06 10:35 | 53.42242 | 7.50006 | 26588 ft | 419 kts | 71° |
| 2026-05-06 10:35 | 53.43253 | 7.54569 | 25981 ft | 416 kts | 72° |
| 2026-05-06 10:35 | 53.44255 | 7.59100 | 25381 ft | 413 kts | 71° |
| 2026-05-06 10:35 | 53.45250 | 7.63613 | 24799 ft | 410 kts | 71° |
| 2026-05-06 10:36 | 53.46235 | 7.68088 | 24226 ft | 407 kts | 71° |
| 2026-05-06 10:36 | 53.47210 | 7.72530 | 23675 ft | 404 kts | 71° |
| 2026-05-06 10:36 | 53.48168 | 7.76900 | 23042 ft | 402 kts | 71° |
| 2026-05-06 10:36 | 53.49129 | 7.81281 | 22502 ft | 397 kts | 72° |
| 2026-05-06 10:37 | 53.50081 | 7.85632 | 21873 ft | 396 kts | 72° |
| 2026-05-06 10:37 | 53.51027 | 7.89970 | 21318 ft | 393 kts | 71° |
| 2026-05-06 10:37 | 53.51961 | 7.94265 | 20811 ft | 390 kts | 72° |
| 2026-05-06 10:37 | 53.52887 | 7.98533 | 20298 ft | 387 kts | 72° |
| 2026-05-06 10:38 | 53.53804 | 8.02757 | 19829 ft | 383 kts | 72° |
| 2026-05-06 10:38 | 53.54710 | 8.06952 | 19332 ft | 381 kts | 72° |
| 2026-05-06 10:38 | 53.55608 | 8.11118 | 18882 ft | 377 kts | 72° |
| 2026-05-06 10:38 | 53.56496 | 8.15247 | 18419 ft | 374 kts | 72° |
| 2026-05-06 10:39 | 53.57381 | 8.19363 | 17949 ft | 372 kts | 72° |
| 2026-05-06 10:39 | 53.58255 | 8.23431 | 17470 ft | 368 kts | 72° |
| 2026-05-06 10:39 | 53.59117 | 8.27474 | 16982 ft | 365 kts | 72° |
| 2026-05-06 10:39 | 53.59968 | 8.31477 | 16527 ft | 362 kts | 71° |
| 2026-05-06 10:40 | 53.60812 | 8.35452 | 16098 ft | 358 kts | 72° |
| 2026-05-06 10:40 | 53.61639 | 8.39342 | 15680 ft | 355 kts | 71° |
| 2026-05-06 10:40 | 53.62437 | 8.43245 | 15249 ft | 350 kts | 76° |
| 2026-05-06 10:40 | 53.62692 | 8.47268 | 14836 ft | 343 kts | 95° |
| 2026-05-06 10:41 | 53.62173 | 8.51152 | 14390 ft | 339 kts | 113° |
| 2026-05-06 10:41 | 53.61160 | 8.54690 | 14119 ft | 331 kts | 117° |
| 2026-05-06 10:41 | 53.60137 | 8.58171 | 13639 ft | 332 kts | 116° |
| 2026-05-06 10:41 | 53.59121 | 8.61651 | 13093 ft | 331 kts | 116° |
| 2026-05-06 10:42 | 53.58109 | 8.65138 | 12571 ft | 331 kts | 116° |
| 2026-05-06 10:42 | 53.57099 | 8.68623 | 12047 ft | 331 kts | 116° |
| 2026-05-06 10:42 | 53.56088 | 8.72093 | 11533 ft | 330 kts | 116° |
| 2026-05-06 10:42 | 53.55078 | 8.75550 | 11027 ft | 330 kts | 116° |
| 2026-05-06 10:43 | 53.54065 | 8.79008 | 10532 ft | 328 kts | 116° |
| 2026-05-06 10:43 | 53.53055 | 8.82449 | 10040 ft | 327 kts | 115° |
| 2026-05-06 10:43 | 53.52052 | 8.85864 | 9524 ft | 324 kts | 115° |
| 2026-05-06 10:44 | 53.50850 | 8.92974 | 8468 ft | 314 kts | 94° |
| 2026-05-06 10:44 | 53.50634 | 8.96605 | 7950 ft | 310 kts | 94° |
| 2026-05-06 10:44 | 53.50435 | 9.00188 | 7440 ft | 306 kts | 94° |
| 2026-05-06 10:44 | 53.50245 | 9.03734 | 6939 ft | 303 kts | 94° |
| 2026-05-06 10:45 | 53.50055 | 9.07230 | 6449 ft | 299 kts | 94° |
| 2026-05-06 10:45 | 53.49868 | 9.10681 | 5939 ft | 295 kts | 94° |
| 2026-05-06 10:45 | 53.49686 | 9.14102 | 5417 ft | 293 kts | 94° |
| 2026-05-06 10:45 | 53.49505 | 9.17484 | 5048 ft | 288 kts | 94° |
| 2026-05-06 10:46 | 53.49327 | 9.20837 | 5002 ft | 288 kts | 94° |
| 2026-05-06 10:46 | 53.49151 | 9.24195 | 5009 ft | 289 kts | 94° |
| 2026-05-06 10:46 | 53.48972 | 9.27562 | 5013 ft | 290 kts | 94° |
| 2026-05-06 10:46 | 53.48794 | 9.30922 | 5008 ft | 289 kts | 94° |
| 2026-05-06 10:47 | 53.48616 | 9.34303 | 5010 ft | 289 kts | 94° |
| 2026-05-06 10:47 | 53.48440 | 9.37665 | 5019 ft | 289 kts | 94° |
| 2026-05-06 10:47 | 53.48271 | 9.41023 | 5019 ft | 288 kts | 94° |
| 2026-05-06 10:47 | 53.48107 | 9.44380 | 5020 ft | 288 kts | 94° |
| 2026-05-06 10:48 | 53.47935 | 9.47732 | 5023 ft | 288 kts | 94° |
| 2026-05-06 10:48 | 53.47763 | 9.51100 | 5024 ft | 289 kts | 94° |
| 2026-05-06 10:48 | 53.47584 | 9.54463 | 5022 ft | 290 kts | 94° |
| 2026-05-06 10:48 | 53.47403 | 9.57811 | 4794 ft | 286 kts | 93° |
| 2026-05-06 10:49 | 53.47603 | 9.61020 | 4491 ft | 275 kts | 76° |
| 2026-05-06 10:49 | 53.48096 | 9.64061 | 4342 ft | 259 kts | 74° |
| 2026-05-06 10:49 | 53.48567 | 9.66886 | 4091 ft | 250 kts | 74° |
| 2026-05-06 10:49 | 53.49017 | 9.69617 | 3832 ft | 234 kts | 74° |
| 2026-05-06 10:50 | 53.49682 | 9.71982 | 3581 ft | 219 kts | 53° |
| 2026-05-06 10:50 | 53.50633 | 9.73887 | 3327 ft | 209 kts | 51° |
| 2026-05-06 10:50 | 53.51547 | 9.75698 | 3107 ft | 195 kts | 52° |
| 2026-05-06 10:50 | 53.52379 | 9.77360 | 3015 ft | 178 kts | 52° |
| 2026-05-06 10:51 | 53.53155 | 9.78914 | 2826 ft | 169 kts | 52° |
| 2026-05-06 10:51 | 53.53898 | 9.80407 | 2614 ft | 165 kts | 52° |
| 2026-05-06 10:51 | 53.54626 | 9.81870 | 2415 ft | 159 kts | 52° |
| 2026-05-06 10:51 | 53.55305 | 9.83232 | 2200 ft | 146 kts | 52° |
| 2026-05-06 10:52 | 53.55939 | 9.84506 | 1995 ft | 138 kts | 52° |
| 2026-05-06 10:52 | 53.56539 | 9.85714 | 1823 ft | 131 kts | 51° |
| 2026-05-06 10:52 | 53.57118 | 9.86879 | 1641 ft | 128 kts | 52° |
| 2026-05-06 10:52 | 53.57686 | 9.88023 | 1466 ft | 127 kts | 51° |
| 2026-05-06 10:53 | 53.58251 | 9.89162 | 1285 ft | 127 kts | 51° |
| 2026-05-06 10:53 | 53.58820 | 9.90307 | 1061 ft | 128 kts | 50° |
| 2026-05-06 10:53 | 53.59386 | 9.91449 | 883 ft | 126 kts | 50° |
| 2026-05-06 10:53 | 53.59945 | 9.92577 | 700 ft | 125 kts | 50° |
| 2026-05-06 10:54 | 53.60510 | 9.93715 | 533 ft | 128 kts | 49° |
| 2026-05-06 10:54 | 53.61075 | 9.94855 | 364 ft | 128 kts | 50° |
| 2026-05-06 10:54 | 53.61645 | 9.96008 | 198 ft | 127 kts | 49° |
| 2026-05-06 10:54 | 53.62207 | 9.97143 | 45 ft | 123 kts | 50° |
| 2026-05-06 10:55 | 53.62676 | 9.98093 | 44 ft | 90 kts | 50° |
| 2026-05-06 10:55 | 53.63032 | 9.98805 | 43 ft | 71 kts | 49° |
| 2026-05-06 10:55 | 53.63208 | 9.99154 | 47 ft | 12 kts | 49° |
| 2026-05-06 10:55 | 53.63310 | 9.99355 | 47 ft | 37 kts | 49° |
| 2026-05-06 10:56 | 53.63471 | 9.99680 | 45 ft | 33 kts | 51° |
| 2026-05-06 10:56 | 53.63579 | 9.99912 | 46 ft | 19 kts | 52° |
| 2026-05-06 10:56 | 53.63644 | 10.00093 | 48 ft | 18 kts | 80° |
| 2026-05-06 10:56 | 53.63575 | 10.00268 | 47 ft | 19 kts | 157° |
| 2026-05-06 10:57 | 53.63486 | 10.00231 | 43 ft | 9 kts | 200° |
| 2026-05-06 10:57 | 53.63432 | 10.00257 | 46 ft | 8 kts | 125° |
| 2026-05-06 10:57 | 53.63421 | 10.00332 | 46 ft | 0 kts | 98° |